createdAt,value
2017-11-16T00:01:17.815Z,91.41
2017-11-16T00:03:46.126Z,91.40
2017-11-16T00:06:14.128Z,91.28
2017-11-16T00:08:42.048Z,91.31
2017-11-16T00:11:09.973Z,91.13
2017-11-16T00:13:37.910Z,90.95
2017-11-16T00:16:05.842Z,91.27
2017-11-16T00:18:33.805Z,91.39
2017-11-16T00:21:01.738Z,91.35
2017-11-16T00:23:29.772Z,91.31
2017-11-16T00:25:57.835Z,91.33
2017-11-16T00:28:25.766Z,91.25
2017-11-16T00:30:53.713Z,91.00
2017-11-16T00:33:21.645Z,90.75
2017-11-16T00:35:49.607Z,90.88
2017-11-16T00:38:17.522Z,91.50
2017-11-16T00:40:45.467Z,91.53
2017-11-16T00:43:13.404Z,91.19
2017-11-16T00:45:41.321Z,91.14
2017-11-16T00:48:09.314Z,91.11
2017-11-16T00:50:37.726Z,91.08
2017-11-16T00:53:06.013Z,91.26
2017-11-16T00:55:34.090Z,91.65
2017-11-16T00:58:02.153Z,92.41
2017-11-16T01:00:30.121Z,92.27
2017-11-16T01:02:58.037Z,91.67
2017-11-16T01:05:25.989Z,92.27
2017-11-16T01:07:53.931Z,92.47
2017-11-16T01:10:21.956Z,92.79
2017-11-16T01:12:49.922Z,92.84
2017-11-16T01:15:17.868Z,92.74
2017-11-16T01:17:45.798Z,92.56
2017-11-16T01:20:13.720Z,92.62
2017-11-16T01:22:42.466Z,92.69
2017-11-16T01:25:10.448Z,92.60
2017-11-16T01:27:38.440Z,92.38
2017-11-16T01:30:06.365Z,92.23
2017-11-16T01:32:34.568Z,92.45
2017-11-16T01:35:02.495Z,92.70
2017-11-16T01:37:30.434Z,92.35
2017-11-16T01:39:58.801Z,92.36
2017-11-16T01:42:26.747Z,92.35
2017-11-16T01:44:54.694Z,92.35
2017-11-16T01:47:22.613Z,91.98
2017-11-16T01:49:50.589Z,92.09
2017-11-16T01:52:18.698Z,91.73
2017-11-16T01:54:46.632Z,91.11
2017-11-16T01:57:14.700Z,91.06
2017-11-16T01:59:43.012Z,91.07
2017-11-16T02:02:22.719Z,90.85
2017-11-16T02:04:50.623Z,91.36
2017-11-16T02:07:18.599Z,91.20
2017-11-16T02:09:46.572Z,90.94
2017-11-16T02:12:14.500Z,90.48
2017-11-16T02:14:42.815Z,90.26
2017-11-16T02:17:10.762Z,89.98
2017-11-16T02:19:38.693Z,90.25
2017-11-16T02:22:06.624Z,90.25
2017-11-16T02:24:34.587Z,89.87
2017-11-16T02:27:02.558Z,90.12
2017-11-16T02:29:30.473Z,90.02
2017-11-16T02:31:59.312Z,89.99
2017-11-16T02:34:27.239Z,90.15
2017-11-16T02:36:55.653Z,90.40
2017-11-16T02:39:23.739Z,90.41
2017-11-16T02:41:51.665Z,90.40
2017-11-16T02:44:19.611Z,90.69
2017-11-16T02:46:47.544Z,90.29
2017-11-16T02:49:15.500Z,90.63
2017-11-16T02:51:43.429Z,91.43
2017-11-16T02:54:11.352Z,90.57
2017-11-16T02:56:39.276Z,90.59
2017-11-16T02:59:07.592Z,90.29
2017-11-16T03:01:35.753Z,90.84
2017-11-16T03:04:03.698Z,90.56
2017-11-16T03:06:31.777Z,90.29
2017-11-16T03:09:00.161Z,90.19
2017-11-16T03:11:28.094Z,90.24
2017-11-16T03:13:56.181Z,90.53
2017-11-16T03:16:24.116Z,90.78
2017-11-16T03:18:52.028Z,90.69
2017-11-16T03:21:20.350Z,90.33
2017-11-16T03:23:48.276Z,90.26
2017-11-16T03:26:16.205Z,90.10
2017-11-16T03:28:44.225Z,90.12
2017-11-16T03:31:12.224Z,89.74
2017-11-16T03:33:40.174Z,89.91
2017-11-16T03:36:08.416Z,89.61
2017-11-16T03:38:36.888Z,89.54
2017-11-16T03:41:04.822Z,89.96
2017-11-16T03:43:32.724Z,89.61
2017-11-16T03:46:00.645Z,89.66
2017-11-16T03:48:28.550Z,89.19
2017-11-16T03:50:56.605Z,89.35
2017-11-16T03:53:24.525Z,89.29
2017-11-16T03:55:52.469Z,89.19
2017-11-16T03:58:20.390Z,89.68
2017-11-16T04:00:48.517Z,89.72
2017-11-16T04:03:17.005Z,89.76
2017-11-16T04:05:44.923Z,89.71
2017-11-16T04:08:12.935Z,89.39
2017-11-16T04:10:40.877Z,89.30
2017-11-16T04:13:08.817Z,89.33
2017-11-16T04:15:36.757Z,89.75
2017-11-16T04:18:04.684Z,90.10
2017-11-16T04:20:32.668Z,90.14
2017-11-16T04:23:00.632Z,90.42
2017-11-16T04:25:28.539Z,90.43
2017-11-16T04:27:56.471Z,90.81
2017-11-16T04:30:24.373Z,90.50
2017-11-16T04:32:52.415Z,90.44
2017-11-16T04:35:20.372Z,90.23
2017-11-16T04:37:48.358Z,90.21
2017-11-16T04:40:16.325Z,90.51
2017-11-16T04:42:44.296Z,90.65
2017-11-16T04:45:12.257Z,90.57
2017-11-16T04:47:40.337Z,90.78
2017-11-16T04:50:08.309Z,90.77
2017-11-16T04:52:36.306Z,91.21
2017-11-16T04:55:04.233Z,91.54
2017-11-16T04:57:32.321Z,91.61
2017-11-16T05:00:00.650Z,91.71
2017-11-16T05:02:28.580Z,92.08
2017-11-16T05:04:56.616Z,92.58
2017-11-16T05:07:24.579Z,93.93
2017-11-16T05:09:52.524Z,93.55
2017-11-16T05:12:20.441Z,93.02
2017-11-16T05:14:48.774Z,93.50
2017-11-16T05:17:16.727Z,93.81
2017-11-16T05:19:44.643Z,94.35
2017-11-16T05:22:12.554Z,94.96
2017-11-16T05:24:40.470Z,95.14
2017-11-16T05:27:08.375Z,95.68
2017-11-16T05:29:36.723Z,95.24
2017-11-16T05:32:04.628Z,95.25
2017-11-16T05:34:32.557Z,94.62
2017-11-16T05:37:00.478Z,94.59
2017-11-16T05:39:28.376Z,94.46
2017-11-16T05:41:56.315Z,94.08
2017-11-16T05:44:24.221Z,93.95
2017-11-16T05:46:52.138Z,93.75
2017-11-16T05:49:20.064Z,93.53
2017-11-16T05:51:47.993Z,93.20
2017-11-16T05:54:15.921Z,93.37
2017-11-16T05:56:43.834Z,93.16
2017-11-16T05:59:11.836Z,93.21
2017-11-16T06:01:39.781Z,93.31
2017-11-16T06:04:07.696Z,93.41
2017-11-16T06:06:35.999Z,93.21
2017-11-16T06:09:03.956Z,93.35
2017-11-16T06:11:31.889Z,93.40
2017-11-16T06:13:59.805Z,93.21
2017-11-16T06:16:27.723Z,93.69
2017-11-16T06:18:55.637Z,93.22
2017-11-16T06:21:23.578Z,92.76
2017-11-16T06:23:51.910Z,92.96
2017-11-16T06:26:19.827Z,92.91
2017-11-16T06:28:48.176Z,92.62
2017-11-16T06:31:16.096Z,92.29
2017-11-16T06:33:44.004Z,92.59
2017-11-16T06:36:11.950Z,92.45
2017-11-16T06:38:39.957Z,92.86
2017-11-16T06:41:07.877Z,92.59
2017-11-16T06:43:35.792Z,92.93
2017-11-16T06:46:03.717Z,92.56
2017-11-16T06:48:31.638Z,92.91
2017-11-16T06:50:59.596Z,93.34
2017-11-16T06:53:27.520Z,93.63
2017-11-16T06:55:55.440Z,93.54
2017-11-16T06:58:23.752Z,93.34
2017-11-16T07:00:51.688Z,92.84
2017-11-16T07:03:19.597Z,92.98
2017-11-16T07:05:47.506Z,93.50
2017-11-16T07:08:15.420Z,93.95
2017-11-16T07:10:43.339Z,94.17
2017-11-16T07:13:11.253Z,94.06
2017-11-16T07:15:39.208Z,94.08
2017-11-16T07:18:07.521Z,94.30
2017-11-16T07:20:35.436Z,94.11
2017-11-16T07:23:03.387Z,94.50
2017-11-16T07:25:31.301Z,94.35
2017-11-16T07:27:59.605Z,95.13
2017-11-16T07:30:27.536Z,95.61
2017-11-16T07:32:55.842Z,95.22
2017-11-16T07:35:24.695Z,95.21
2017-11-16T07:37:52.638Z,95.24
2017-11-16T07:40:20.565Z,95.11
2017-11-16T07:42:48.844Z,95.05
2017-11-16T07:45:16.769Z,94.91
2017-11-16T07:47:44.694Z,94.29
2017-11-16T07:50:12.620Z,94.52
2017-11-16T07:52:40.938Z,94.72
2017-11-16T07:55:08.857Z,94.93
2017-11-16T07:57:37.187Z,94.38
2017-11-16T08:00:05.101Z,94.19
2017-11-16T08:02:33.417Z,94.05
2017-11-16T08:05:01.345Z,94.52
2017-11-16T08:07:29.264Z,94.24
2017-11-16T08:09:57.185Z,94.17
2017-11-16T08:12:25.498Z,94.21
2017-11-16T08:14:53.399Z,94.82
2017-11-16T08:17:21.326Z,95.28
2017-11-16T08:19:49.257Z,95.36
2017-11-16T08:22:17.177Z,95.51
2017-11-16T08:24:45.101Z,95.75
2017-11-16T08:27:13.404Z,95.34
2017-11-16T08:29:41.329Z,94.59
2017-11-16T08:32:09.255Z,94.00
2017-11-16T08:34:37.245Z,93.83
2017-11-16T08:37:05.156Z,93.68
2017-11-16T08:39:33.473Z,93.42
2017-11-16T08:42:01.413Z,92.96
2017-11-16T08:44:29.336Z,92.53
2017-11-16T08:46:57.293Z,92.72
2017-11-16T08:49:25.204Z,92.28
2017-11-16T08:51:53.523Z,91.83
2017-11-16T08:54:21.441Z,91.34
2017-11-16T08:56:49.742Z,90.97
2017-11-16T08:59:17.672Z,91.20
2017-11-16T09:01:45.581Z,90.71
2017-11-16T09:04:13.613Z,90.54
2017-11-16T09:06:41.956Z,90.45
2017-11-16T09:09:09.881Z,90.50
2017-11-16T09:11:38.234Z,90.23
2017-11-16T09:14:06.183Z,89.40
2017-11-16T09:16:34.117Z,89.42
2017-11-16T09:19:02.046Z,88.70
2017-11-16T09:21:29.944Z,88.51
2017-11-16T09:23:58.268Z,88.73
2017-11-16T09:26:26.168Z,88.13
2017-11-16T09:28:54.099Z,87.52
2017-11-16T09:31:22.024Z,86.68
2017-11-16T09:33:49.941Z,86.16
2017-11-16T09:36:17.868Z,86.16
2017-11-16T09:38:45.771Z,85.38
2017-11-16T09:41:13.689Z,85.02
2017-11-16T09:43:42.016Z,84.05
2017-11-16T09:46:09.925Z,84.26
2017-11-16T09:48:38.267Z,84.84
2017-11-16T09:51:06.188Z,85.17
2017-11-16T09:53:34.122Z,85.17
2017-11-16T09:56:02.113Z,84.47
2017-11-16T09:58:30.420Z,84.48
2017-11-16T10:00:58.353Z,84.18
2017-11-16T10:03:26.653Z,83.36
2017-11-16T10:05:54.560Z,82.74
2017-11-16T10:08:22.477Z,82.48
2017-11-16T10:10:50.399Z,83.57
2017-11-16T10:13:18.378Z,82.19
2017-11-16T10:15:46.277Z,81.14
2017-11-16T10:18:14.582Z,80.51
2017-11-16T10:20:42.498Z,79.61
2017-11-16T10:23:10.401Z,80.07
2017-11-16T10:25:38.344Z,79.45
2017-11-16T10:28:06.660Z,80.95
2017-11-16T10:30:34.568Z,81.16
2017-11-16T10:33:02.488Z,81.36
2017-11-16T10:35:30.403Z,82.16
2017-11-16T10:37:58.332Z,82.38
2017-11-16T10:40:26.241Z,82.95
2017-11-16T10:42:54.149Z,83.35
2017-11-16T10:45:22.087Z,83.45
2017-11-16T10:47:50.011Z,83.23
2017-11-16T10:50:17.971Z,83.69
2017-11-16T10:52:45.885Z,83.09
2017-11-16T10:55:13.809Z,82.56
2017-11-16T10:57:41.754Z,82.56
2017-11-16T11:00:10.061Z,82.97
2017-11-16T11:02:37.997Z,83.54
2017-11-16T11:05:06.355Z,84.17
2017-11-16T11:07:34.260Z,84.08
2017-11-16T11:10:02.295Z,83.93
2017-11-16T11:12:30.619Z,83.18
2017-11-16T11:14:58.556Z,82.27
2017-11-16T11:17:26.866Z,82.04
2017-11-16T11:19:54.809Z,82.04
2017-11-16T11:22:23.136Z,81.56
2017-11-16T11:24:51.098Z,82.33
2017-11-16T11:27:19.032Z,82.25
2017-11-16T11:29:46.962Z,82.42
2017-11-16T11:32:14.885Z,82.48
2017-11-16T11:34:42.804Z,81.92
2017-11-16T11:37:10.725Z,81.01
2017-11-16T11:39:38.663Z,80.42
2017-11-16T11:42:06.969Z,80.87
2017-11-16T11:44:34.904Z,80.90
2017-11-16T11:47:03.268Z,81.76
2017-11-16T11:49:31.586Z,81.32
2017-11-16T11:51:59.519Z,81.35
2017-11-16T11:54:27.838Z,81.21
2017-11-16T11:56:55.746Z,80.31
2017-11-16T11:59:23.672Z,80.44
2017-11-16T12:01:51.593Z,81.17
2017-11-16T12:04:19.517Z,81.09
2017-11-16T12:06:47.428Z,80.85
2017-11-16T12:09:15.747Z,81.08
2017-11-16T12:11:43.666Z,80.99
2017-11-16T12:14:11.640Z,79.90
2017-11-16T12:16:39.585Z,79.95
2017-11-16T12:19:07.520Z,80.15
2017-11-16T12:21:35.434Z,80.67
2017-11-16T12:24:03.360Z,80.97
2017-11-16T12:26:31.283Z,80.97
2017-11-16T12:28:59.213Z,80.69
2017-11-16T12:31:27.126Z,80.27
2017-11-16T12:33:55.442Z,79.63
2017-11-16T12:36:23.366Z,79.85
2017-11-16T12:38:51.282Z,80.10
2017-11-16T12:41:19.222Z,79.44
2017-11-16T12:43:47.526Z,78.74
2017-11-16T12:46:15.450Z,78.47
2017-11-16T12:48:43.372Z,78.19
2017-11-16T12:51:11.296Z,78.02
2017-11-16T12:53:39.248Z,77.86
2017-11-16T12:56:07.159Z,77.56
2017-11-16T12:58:35.064Z,76.70
2017-11-16T13:01:02.987Z,76.41
2017-11-16T13:03:30.898Z,76.15
2017-11-16T13:05:59.200Z,75.93
2017-11-16T13:08:27.520Z,75.65
2017-11-16T13:10:55.431Z,75.78
2017-11-16T13:13:23.380Z,76.20
2017-11-16T13:15:51.302Z,76.49
2017-11-16T13:18:19.634Z,76.95
2017-11-16T13:20:47.556Z,77.56
2017-11-16T13:23:15.479Z,77.15
2017-11-16T13:25:43.405Z,76.90
2017-11-16T13:28:11.337Z,76.92
2017-11-16T13:30:39.672Z,77.11
2017-11-16T13:33:07.585Z,77.53
2017-11-16T13:35:35.888Z,77.72
2017-11-16T13:38:03.836Z,78.60
2017-11-16T13:40:32.172Z,79.04
2017-11-16T13:43:00.100Z,78.97
2017-11-16T13:45:28.008Z,78.44
2017-11-16T13:47:56.023Z,79.22
2017-11-16T13:50:23.962Z,79.54
2017-11-16T13:52:51.873Z,79.51
2017-11-16T13:55:19.812Z,79.56
2017-11-16T13:57:47.721Z,79.18
2017-11-16T14:00:15.628Z,79.45
2017-11-16T14:02:43.558Z,79.29
2017-11-16T14:05:11.468Z,80.02
2017-11-16T14:07:39.439Z,80.62
2017-11-16T14:10:07.349Z,81.01
2017-11-16T14:12:35.263Z,81.07
2017-11-16T14:15:03.194Z,80.69
2017-11-16T14:17:31.110Z,80.88
2017-11-16T14:19:59.049Z,81.60
2017-11-16T14:22:26.969Z,81.67
2017-11-16T14:24:56.689Z,81.58
2017-11-16T14:27:24.611Z,81.76
2017-11-16T14:29:52.526Z,82.45
2017-11-16T14:32:20.862Z,82.87
2017-11-16T14:34:48.808Z,82.94
2017-11-16T14:37:16.725Z,82.48
2017-11-16T14:39:45.057Z,82.17
2017-11-16T14:42:12.975Z,81.89
2017-11-16T14:44:41.294Z,81.88
2017-11-16T14:47:09.199Z,81.69
2017-11-16T14:49:37.132Z,81.53
2017-11-16T14:52:05.034Z,81.62
2017-11-16T14:54:32.952Z,82.01
2017-11-16T14:57:00.872Z,81.67
2017-11-16T14:59:28.802Z,81.27
2017-11-16T15:01:56.809Z,81.43
2017-11-16T15:04:24.728Z,81.28
2017-11-16T15:06:52.644Z,81.15
2017-11-16T15:09:20.564Z,81.13
2017-11-16T15:11:48.467Z,81.21
2017-11-16T15:14:16.411Z,80.80
2017-11-16T15:16:44.344Z,80.59
2017-11-16T15:19:12.661Z,80.34
2017-11-16T15:21:40.590Z,80.57
2017-11-16T15:24:08.904Z,80.37
2017-11-16T15:26:36.854Z,80.54
2017-11-16T15:29:04.760Z,80.52
2017-11-16T15:31:32.670Z,80.98
2017-11-16T15:34:00.994Z,80.62
2017-11-16T15:36:28.922Z,80.64
2017-11-16T15:38:56.857Z,81.20
2017-11-16T15:41:24.769Z,80.54
2017-11-16T15:43:52.694Z,80.55
2017-11-16T15:46:20.625Z,81.05
2017-11-16T15:48:48.537Z,80.93
2017-11-16T15:51:16.503Z,81.50
2017-11-16T15:53:44.423Z,81.32
2017-11-16T15:56:12.333Z,81.14
2017-11-16T15:58:40.268Z,81.27
2017-11-16T16:01:08.168Z,81.09
2017-11-16T16:03:36.100Z,81.00
2017-11-16T16:06:03.995Z,81.61
2017-11-16T16:08:31.930Z,82.07
2017-11-16T16:10:59.897Z,82.27
2017-11-16T16:13:27.819Z,82.86
2017-11-16T16:15:55.740Z,82.84
2017-11-16T16:18:23.638Z,82.42
2017-11-16T16:20:51.545Z,82.53
2017-11-16T16:23:19.458Z,82.88
2017-11-16T16:25:47.365Z,83.42
2017-11-16T16:28:15.766Z,83.37
2017-11-16T16:30:43.677Z,83.12
2017-11-16T16:33:11.580Z,83.16
2017-11-16T16:35:39.890Z,83.53
2017-11-16T16:38:07.826Z,83.59
2017-11-16T16:40:36.158Z,84.18
2017-11-16T16:43:04.048Z,83.77
2017-11-16T16:45:31.947Z,83.95
2017-11-16T16:48:00.271Z,83.86
2017-11-16T16:50:28.279Z,83.60
2017-11-16T16:52:56.194Z,83.46
2017-11-16T16:55:24.111Z,83.57
2017-11-16T16:57:52.034Z,83.63
2017-11-16T17:00:19.945Z,83.72
2017-11-16T17:02:47.866Z,83.23
2017-11-16T17:05:15.808Z,83.01
2017-11-16T17:07:44.117Z,82.97
2017-11-16T17:10:12.025Z,82.96
2017-11-16T17:12:39.944Z,83.25
2017-11-16T17:15:07.840Z,83.05
2017-11-16T17:17:35.767Z,82.49
2017-11-16T17:20:03.674Z,82.36
2017-11-16T17:22:31.577Z,82.45
2017-11-16T17:24:59.902Z,82.52
2017-11-16T17:27:27.821Z,82.30
2017-11-16T17:29:56.145Z,82.93
2017-11-16T17:32:24.065Z,82.97
2017-11-16T17:34:51.984Z,82.48
2017-11-16T17:37:19.900Z,82.50
2017-11-16T17:39:48.238Z,82.87
2017-11-16T17:42:16.944Z,83.30
2017-11-16T17:44:44.837Z,83.37
2017-11-16T17:47:13.131Z,83.65
2017-11-16T17:49:41.053Z,83.67
2017-11-16T17:52:08.964Z,83.94
2017-11-16T17:54:36.896Z,84.62
2017-11-16T17:57:04.801Z,84.93
2017-11-16T17:59:32.725Z,84.87
2017-11-16T18:02:00.654Z,84.83
2017-11-16T18:04:28.565Z,85.49
2017-11-16T18:06:56.503Z,85.46
2017-11-16T18:09:24.408Z,85.33
2017-11-16T18:11:52.743Z,85.47
2017-11-16T18:14:20.665Z,85.44
2017-11-16T18:16:48.989Z,85.60
2017-11-16T18:19:16.909Z,85.95
2017-11-16T18:21:44.824Z,85.87
2017-11-16T18:24:12.739Z,85.90
2017-11-16T18:26:40.658Z,85.68
2017-11-16T18:29:08.571Z,85.56
2017-11-16T18:31:36.502Z,85.37
2017-11-16T18:34:04.410Z,85.02
2017-11-16T18:36:32.327Z,84.75
2017-11-16T18:39:00.253Z,84.92
2017-11-16T18:41:28.171Z,84.48
2017-11-16T18:43:56.105Z,85.13
2017-11-16T18:46:24.012Z,85.03
2017-11-16T18:48:51.916Z,84.79
2017-11-16T18:51:19.857Z,85.19
2017-11-16T18:53:47.765Z,84.77
2017-11-16T18:56:16.088Z,85.16
2017-11-16T18:58:43.985Z,85.41
2017-11-16T19:01:11.881Z,85.86
2017-11-16T19:03:39.788Z,86.70
2017-11-16T19:06:07.692Z,87.09
2017-11-16T19:08:35.633Z,87.39
2017-11-16T19:11:03.556Z,87.65
2017-11-16T19:13:31.856Z,87.79
2017-11-16T19:15:59.772Z,88.32
2017-11-16T19:18:27.675Z,88.23
2017-11-16T19:20:55.609Z,88.68
2017-11-16T19:23:23.515Z,88.68
2017-11-16T19:25:51.415Z,89.00
2017-11-16T19:28:19.322Z,88.97
2017-11-16T19:30:47.225Z,88.84
2017-11-16T19:33:15.258Z,88.18
2017-11-16T19:35:43.165Z,88.01
2017-11-16T19:38:11.076Z,87.76
2017-11-16T19:40:38.994Z,88.60
2017-11-16T19:43:06.925Z,88.88
2017-11-16T19:45:34.855Z,89.17
2017-11-16T19:48:02.767Z,88.94
2017-11-16T19:50:30.709Z,88.84
2017-11-16T19:52:58.637Z,89.35
2017-11-16T19:55:26.549Z,89.92
2017-11-16T19:57:54.473Z,90.29
2017-11-16T20:00:22.383Z,90.22
2017-11-16T20:02:50.374Z,90.71
2017-11-16T20:05:18.293Z,90.69
2017-11-16T20:07:46.222Z,90.66
2017-11-16T20:10:14.536Z,90.84
2017-11-16T20:12:42.470Z,90.37
2017-11-16T20:15:10.774Z,90.29
2017-11-16T20:17:38.713Z,89.81
2017-11-16T20:20:07.051Z,90.07
2017-11-16T20:22:34.998Z,90.30
2017-11-16T20:25:02.926Z,89.89
2017-11-16T20:27:30.866Z,90.16
2017-11-16T20:29:58.789Z,89.84
2017-11-16T20:32:26.705Z,89.43
2017-11-16T20:34:54.645Z,89.54
2017-11-16T20:40:39.837Z,89.45
2017-11-16T20:43:13.444Z,89.00
2017-11-16T20:45:46.805Z,88.88
2017-11-16T20:51:27.049Z,88.65
2017-11-16T20:54:11.641Z,88.52
2017-11-16T20:56:39.564Z,88.10
2017-11-16T20:59:07.485Z,88.27
2017-11-16T21:01:35.400Z,88.17
2017-11-16T21:04:03.309Z,88.32
2017-11-16T21:06:31.233Z,88.67
2017-11-16T21:08:59.156Z,88.66
2017-11-16T21:11:27.071Z,88.67
2017-11-16T21:13:55.041Z,88.01
2017-11-16T21:16:22.960Z,87.51
2017-11-16T21:18:50.874Z,88.05
2017-11-16T21:21:18.788Z,87.64
2017-11-16T21:23:46.715Z,87.12
2017-11-16T21:26:14.685Z,86.83
2017-11-16T21:28:42.611Z,87.02
2017-11-16T21:31:10.701Z,86.87
2017-11-16T21:33:38.630Z,86.97
2017-11-16T21:36:06.962Z,86.95
2017-11-16T21:38:34.873Z,86.39
2017-11-16T21:41:03.213Z,86.47
2017-11-16T21:43:31.125Z,86.18
2017-11-16T21:45:59.053Z,86.53
2017-11-16T21:48:26.968Z,86.37
2017-11-16T21:50:54.862Z,85.84
2017-11-16T21:53:22.770Z,85.67
2017-11-16T21:55:50.677Z,85.51
2017-11-16T21:58:18.610Z,85.77
2017-11-16T22:00:46.912Z,86.19
2017-11-16T22:03:14.825Z,86.21
2017-11-16T22:05:42.805Z,86.27
2017-11-16T22:08:10.718Z,86.75
2017-11-16T22:10:38.649Z,87.06
2017-11-16T22:13:06.564Z,87.01
2017-11-16T22:15:34.478Z,87.49
2017-11-16T22:18:02.538Z,87.33
2017-11-16T22:20:30.877Z,86.55
2017-11-16T22:22:58.804Z,86.17
2017-11-16T22:25:26.712Z,86.24
2017-11-16T22:27:54.643Z,85.95
2017-11-16T22:30:22.571Z,86.21
2017-11-16T22:32:50.482Z,86.83
2017-11-16T22:35:18.405Z,86.31
2017-11-16T22:37:46.306Z,86.24
2017-11-16T22:40:14.205Z,86.20
2017-11-16T22:42:42.515Z,86.80
2017-11-16T22:45:10.437Z,86.83
2017-11-16T22:47:38.758Z,86.68
2017-11-16T22:50:06.684Z,86.85
2017-11-16T22:52:34.981Z,86.96
2017-11-16T22:55:02.894Z,86.78
2017-11-16T22:57:30.800Z,86.85
2017-11-16T22:59:59.187Z,86.77
2017-11-16T23:02:27.095Z,86.58
2017-11-16T23:04:55.016Z,86.77
2017-11-16T23:07:23.338Z,87.78
2017-11-16T23:09:51.446Z,87.97
2017-11-16T23:12:19.408Z,88.06
2017-11-16T23:14:47.316Z,87.71
2017-11-16T23:17:15.249Z,87.65
2017-11-16T23:19:43.167Z,87.83
2017-11-16T23:22:11.094Z,88.13
2017-11-16T23:24:39.020Z,87.90
2017-11-16T23:27:06.944Z,87.66
2017-11-16T23:29:35.297Z,87.95
2017-11-16T23:32:03.267Z,87.63
2017-11-16T23:34:31.237Z,88.02
2017-11-16T23:36:59.205Z,88.53
2017-11-16T23:39:27.244Z,88.62
2017-11-16T23:41:55.159Z,89.53
2017-11-16T23:44:23.469Z,89.89
2017-11-16T23:46:51.365Z,90.23
2017-11-16T23:49:19.297Z,89.97
2017-11-16T23:51:47.203Z,89.79
2017-11-16T23:54:15.129Z,89.40
2017-11-16T23:56:43.061Z,89.72
2017-11-16T23:59:10.955Z,89.37
